Terminal Aerodrome Forecast
Issued by NWS Boise, ID

Home | Current Version | Previous Version | Text Only | Print | Product List | Glossary On
Versions: 1 2 3 4 5 6 7 8 9 10 11 12 13 14
000
FTUS45 KBOI 240521
TAFBNO
TAF
KBNO 240521Z 2406/2506 19005KT P6SM SCT100 BKN150
     FM240900 VRB05KT P6SM VCSH OVC050
     FM241200 14007KT 6SM -RA BR SCT015 OVC025
     FM241800 19008KT 3SM -RA BR OVC015
     FM250200 VRB04KT P6SM VCSH BKN040=

USA.gov is the U.S. government's official web portal to all federal, state and local government web resources and services.